createdAt,value
2019-01-28T00:01:08.607Z,18.49
2019-01-28T00:03:35.859Z,18.47
2019-01-28T00:06:03.081Z,18.48
2019-01-28T00:08:30.286Z,18.53
2019-01-28T00:10:57.599Z,18.52
2019-01-28T00:13:24.785Z,18.48
2019-01-28T00:15:52.019Z,18.47
2019-01-28T00:18:19.215Z,18.47
2019-01-28T00:20:46.434Z,18.53
2019-01-28T00:23:13.597Z,18.52
2019-01-28T00:25:40.822Z,18.51
2019-01-28T00:28:08.066Z,18.49
2019-01-28T00:30:35.255Z,18.44
2019-01-28T00:33:02.450Z,18.46
2019-01-28T00:35:29.627Z,18.43
2019-01-28T00:37:56.859Z,18.42
2019-01-28T00:40:24.149Z,18.42
2019-01-28T00:42:51.482Z,18.44
2019-01-28T00:45:18.654Z,18.46
2019-01-28T00:47:45.856Z,18.46
2019-01-28T00:50:13.038Z,18.44
2019-01-28T00:52:40.221Z,18.46
2019-01-28T00:55:08.735Z,18.49
2019-01-28T00:57:35.919Z,18.51
2019-01-28T01:00:03.716Z,18.51
2019-01-28T01:02:30.893Z,18.55
2019-01-28T01:04:58.153Z,18.54
2019-01-28T01:07:25.344Z,18.54
2019-01-28T01:09:52.560Z,18.58
2019-01-28T01:12:19.745Z,18.59
2019-01-28T01:14:46.940Z,18.56
2019-01-28T01:17:14.203Z,18.56
2019-01-28T01:19:41.380Z,18.54
2019-01-28T01:22:08.575Z,18.55
2019-01-28T01:24:35.793Z,18.53
2019-01-28T01:27:02.982Z,18.50
2019-01-28T01:29:30.195Z,18.54
2019-01-28T01:31:57.362Z,18.54
2019-01-28T01:34:24.590Z,18.52
2019-01-28T01:36:51.797Z,18.54
2019-01-28T01:39:18.967Z,18.55
2019-01-28T01:41:46.180Z,18.59
2019-01-28T01:44:13.371Z,18.51
2019-01-28T01:46:40.603Z,18.49
2019-01-28T01:49:07.776Z,18.52
2019-01-28T01:51:35.108Z,18.50
2019-01-28T01:54:02.305Z,18.52
2019-01-28T01:56:29.536Z,18.47
2019-01-28T01:58:56.741Z,18.49
2019-01-28T02:01:23.973Z,18.49
2019-01-28T02:03:51.148Z,18.48
2019-01-28T02:06:18.347Z,18.49
2019-01-28T02:08:45.672Z,18.52
2019-01-28T02:11:12.870Z,18.51
2019-01-28T02:13:40.018Z,18.49
2019-01-28T02:16:07.245Z,18.48
2019-01-28T02:18:34.456Z,18.46
2019-01-28T02:21:01.691Z,18.50
2019-01-28T02:23:28.927Z,18.50
2019-01-28T02:25:56.132Z,18.48
2019-01-28T02:28:23.380Z,18.50
2019-01-28T02:30:50.570Z,18.50
2019-01-28T02:33:17.823Z,18.49
2019-01-28T02:35:45.039Z,18.47
2019-01-28T02:38:12.255Z,18.47
2019-01-28T02:40:39.447Z,18.45
2019-01-28T02:43:06.622Z,18.48
2019-01-28T02:45:33.858Z,18.49
2019-01-28T02:48:01.082Z,18.49
2019-01-28T02:50:28.292Z,18.52
2019-01-28T02:52:55.502Z,18.49
2019-01-28T02:55:22.707Z,18.53
2019-01-28T02:57:49.913Z,18.53
2019-01-28T03:00:19.316Z,18.58
2019-01-28T03:02:46.461Z,18.55
2019-01-28T03:05:14.025Z,18.51
2019-01-28T03:07:41.209Z,18.52
2019-01-28T03:10:11.990Z,18.52
2019-01-28T03:12:39.191Z,18.52
2019-01-28T03:15:06.819Z,18.53
2019-01-28T03:17:34.089Z,18.56
2019-01-28T03:20:01.322Z,18.55
2019-01-28T03:22:28.438Z,18.54
2019-01-28T03:24:55.630Z,18.56
2019-01-28T03:27:22.875Z,18.56
2019-01-28T03:29:50.090Z,18.56
2019-01-28T03:32:17.258Z,18.52
2019-01-28T03:34:44.435Z,18.55
2019-01-28T03:37:11.674Z,18.54
2019-01-28T03:39:38.861Z,18.52
2019-01-28T03:42:06.082Z,18.55
2019-01-28T03:44:33.283Z,18.58
2019-01-28T03:47:00.486Z,18.58
2019-01-28T03:49:27.734Z,18.57
2019-01-28T03:51:55.144Z,18.57
2019-01-28T03:54:22.357Z,18.62
2019-01-28T03:56:49.564Z,18.61
2019-01-28T03:59:16.779Z,18.63
2019-01-28T04:01:44.003Z,18.59
2019-01-28T04:04:11.219Z,18.57
2019-01-28T04:06:38.459Z,18.58
2019-01-28T04:09:08.081Z,18.58
2019-01-28T04:11:35.288Z,18.52
2019-01-28T04:14:02.523Z,18.52
2019-01-28T04:16:29.722Z,18.49
2019-01-28T04:18:56.951Z,18.50
2019-01-28T04:21:24.168Z,18.51
2019-01-28T04:23:51.410Z,18.50
2019-01-28T04:26:21.412Z,18.52
2019-01-28T04:28:48.819Z,18.52
2019-01-28T04:31:15.989Z,18.57
2019-01-28T04:33:43.161Z,18.60
2019-01-28T04:36:10.415Z,18.65
2019-01-28T04:38:37.564Z,18.59
2019-01-28T04:41:04.815Z,18.63
2019-01-28T04:43:32.141Z,18.66
2019-01-28T04:45:59.334Z,18.63
2019-01-28T04:48:26.510Z,18.66
2019-01-28T04:50:53.743Z,18.73
2019-01-28T04:53:20.986Z,18.78
2019-01-28T04:55:48.181Z,18.88
2019-01-28T04:58:15.356Z,18.95
2019-01-28T05:00:42.577Z,19.04
2019-01-28T05:03:09.783Z,19.08
2019-01-28T05:05:36.964Z,19.09
2019-01-28T05:08:04.237Z,19.16
2019-01-28T05:10:31.394Z,19.20
2019-01-28T05:12:58.619Z,19.20
2019-01-28T05:15:25.940Z,19.22
2019-01-28T05:17:53.172Z,19.23
2019-01-28T05:20:20.411Z,19.17
2019-01-28T05:22:47.602Z,19.16
2019-01-28T05:25:15.239Z,19.21
2019-01-28T05:27:42.813Z,19.19
2019-01-28T05:30:15.588Z,19.21
2019-01-28T05:32:42.788Z,19.22
2019-01-28T05:35:11.378Z,19.23
2019-01-28T05:37:38.822Z,19.26
2019-01-28T05:40:07.667Z,19.24
2019-01-28T05:42:34.898Z,19.24
2019-01-28T05:45:02.111Z,19.23
2019-01-28T05:47:29.306Z,19.29
2019-01-28T05:49:56.502Z,19.23
2019-01-28T05:52:23.695Z,19.17
2019-01-28T05:54:50.938Z,19.10
2019-01-28T05:57:18.199Z,19.16
2019-01-28T05:59:45.395Z,19.22
2019-01-28T06:02:12.559Z,19.25
2019-01-28T06:04:39.818Z,19.26
2019-01-28T06:07:07.082Z,19.27
2019-01-28T06:09:34.231Z,19.27
2019-01-28T06:12:01.462Z,19.30
2019-01-28T06:14:28.661Z,19.30
2019-01-28T06:16:55.847Z,19.28
2019-01-28T06:19:23.094Z,19.28
2019-01-28T06:21:50.316Z,19.27
2019-01-28T06:24:17.474Z,19.27
2019-01-28T06:26:44.676Z,19.27
2019-01-28T06:29:11.844Z,19.22
2019-01-28T06:31:39.025Z,19.20
2019-01-28T06:34:06.230Z,19.05
2019-01-28T06:36:38.016Z,18.90
2019-01-28T06:39:13.873Z,18.87
2019-01-28T06:41:41.161Z,18.86
2019-01-28T06:44:08.318Z,18.86
2019-01-28T06:46:35.642Z,18.85
2019-01-28T06:49:02.906Z,18.85
2019-01-28T06:51:35.510Z,18.83
2019-01-28T06:54:02.778Z,18.84
2019-01-28T06:56:30.207Z,18.81
2019-01-28T06:58:57.432Z,18.85
2019-01-28T07:01:24.725Z,18.89
2019-01-28T07:03:51.960Z,18.93
2019-01-28T07:06:19.169Z,18.95
2019-01-28T07:08:46.447Z,18.94
2019-01-28T07:11:13.613Z,18.92
2019-01-28T07:13:40.899Z,18.90
2019-01-28T07:16:08.078Z,18.91
2019-01-28T07:18:35.357Z,18.91
2019-01-28T07:21:02.547Z,18.95
2019-01-28T07:23:29.714Z,18.96
2019-01-28T07:25:56.930Z,18.97
2019-01-28T07:28:24.144Z,18.92
2019-01-28T07:30:51.385Z,18.88
2019-01-28T07:33:18.689Z,18.87
2019-01-28T07:35:45.943Z,18.85
2019-01-28T07:38:13.114Z,18.87
2019-01-28T07:40:40.334Z,18.84
2019-01-28T07:43:07.571Z,18.82
2019-01-28T07:45:44.695Z,18.80
2019-01-28T07:48:05.753Z,18.81
2019-01-28T07:50:32.927Z,18.78
2019-01-28T07:53:00.107Z,18.79
2019-01-28T07:55:27.259Z,18.77
2019-01-28T07:57:54.466Z,18.87
2019-01-28T08:00:23.882Z,18.87
2019-01-28T08:02:51.146Z,18.88
2019-01-28T08:05:18.358Z,18.88
2019-01-28T08:07:45.642Z,18.88
2019-01-28T08:10:13.889Z,18.87
2019-01-28T08:12:41.060Z,18.82
2019-01-28T08:15:10.076Z,18.80
2019-01-28T08:17:37.279Z,18.82
2019-01-28T08:20:11.469Z,18.88
2019-01-28T08:22:34.843Z,18.88
2019-01-28T08:25:02.055Z,18.88
2019-01-28T08:27:29.283Z,18.90
2019-01-28T08:29:56.791Z,18.89
2019-01-28T08:32:26.891Z,18.85
2019-01-28T08:34:54.062Z,18.86
2019-01-28T08:37:21.282Z,18.85
2019-01-28T08:39:48.488Z,18.86
2019-01-28T08:42:15.671Z,18.87
2019-01-28T08:44:42.823Z,18.91
2019-01-28T08:47:10.019Z,18.93
2019-01-28T08:49:37.199Z,18.96
2019-01-28T08:52:04.391Z,18.98
2019-01-28T08:54:31.625Z,18.98
2019-01-28T08:56:58.799Z,18.96
2019-01-28T08:59:26.013Z,18.97
2019-01-28T09:01:53.178Z,18.99
2019-01-28T09:04:20.447Z,18.99
2019-01-28T09:06:47.654Z,19.01
2019-01-28T09:09:14.867Z,18.99
2019-01-28T09:11:42.060Z,18.99
2019-01-28T09:14:09.271Z,19.01
2019-01-28T09:16:36.452Z,19.00
2019-01-28T09:19:03.821Z,19.03
2019-01-28T09:21:31.034Z,19.01
2019-01-28T09:23:58.207Z,18.99
2019-01-28T09:26:25.476Z,19.03
2019-01-28T09:28:52.673Z,19.01
2019-01-28T09:31:19.948Z,19.03
2019-01-28T09:33:47.118Z,19.04
2019-01-28T09:36:14.357Z,19.00
2019-01-28T09:38:41.539Z,19.02
2019-01-28T09:41:08.717Z,18.99
2019-01-28T09:43:35.946Z,19.01
2019-01-28T09:46:03.197Z,18.99
2019-01-28T09:48:34.337Z,18.97
2019-01-28T09:50:59.480Z,19.00
2019-01-28T09:53:29.316Z,19.07
2019-01-28T09:55:55.844Z,19.12
2019-01-28T09:58:23.246Z,19.11
2019-01-28T10:00:50.987Z,19.06
2019-01-28T10:03:18.221Z,19.05
2019-01-28T10:05:45.518Z,19.08
2019-01-28T10:08:12.682Z,19.12
2019-01-28T10:10:39.977Z,19.10
2019-01-28T10:13:07.255Z,19.09
2019-01-28T10:15:34.469Z,19.06
2019-01-28T10:18:01.670Z,19.05
2019-01-28T10:20:31.024Z,19.03
2019-01-28T10:22:58.235Z,19.06
2019-01-28T10:25:25.419Z,19.05
2019-01-28T10:27:54.800Z,19.04
2019-01-28T10:30:24.878Z,19.04
2019-01-28T10:32:52.091Z,19.09
2019-01-28T10:35:20.017Z,19.07
2019-01-28T10:37:47.221Z,19.09
2019-01-28T10:40:17.598Z,19.11
2019-01-28T10:42:44.822Z,19.09
2019-01-28T10:45:12.062Z,19.08
2019-01-28T10:47:39.271Z,19.11
2019-01-28T10:50:07.819Z,19.11
2019-01-28T10:52:35.140Z,19.12
2019-01-28T10:55:02.315Z,19.15
2019-01-28T10:57:29.496Z,19.12
2019-01-28T10:59:56.690Z,19.14
2019-01-28T11:02:23.885Z,19.17
2019-01-28T11:04:51.111Z,19.18
2019-01-28T11:07:18.318Z,19.21
2019-01-28T11:09:45.644Z,19.18
2019-01-28T11:12:12.828Z,19.20
2019-01-28T11:14:40.051Z,19.21
2019-01-28T11:17:07.300Z,19.23
2019-01-28T11:19:36.523Z,19.28
2019-01-28T11:22:04.076Z,19.31
2019-01-28T11:24:31.459Z,19.28
2019-01-28T11:26:58.702Z,19.28
2019-01-28T11:29:25.949Z,19.35
2019-01-28T11:31:56.495Z,19.38
2019-01-28T11:34:24.684Z,19.38
2019-01-28T11:36:52.074Z,19.36
2019-01-28T11:39:19.412Z,19.35
2019-01-28T11:41:46.695Z,19.28
2019-01-28T11:44:14.097Z,19.28
2019-01-28T11:46:41.487Z,19.31
2019-01-28T11:49:08.793Z,19.29
2019-01-28T11:51:35.967Z,19.28
2019-01-28T11:54:05.304Z,19.33
2019-01-28T11:56:34.009Z,19.36
2019-01-28T11:59:01.758Z,19.32
2019-01-28T12:01:32.286Z,19.31
2019-01-28T12:04:07.135Z,19.33
2019-01-28T12:06:34.886Z,19.31
2019-01-28T12:09:05.785Z,19.25
2019-01-28T12:11:34.754Z,19.26
2019-01-28T12:14:09.445Z,19.34
2019-01-28T12:16:40.251Z,19.36
2019-01-28T12:19:14.022Z,19.40
2019-01-28T12:21:36.729Z,19.44
2019-01-28T12:24:03.945Z,19.45
2019-01-28T12:26:33.633Z,19.41
2019-01-28T12:29:03.322Z,19.35
2019-01-28T12:31:32.495Z,19.35
2019-01-28T12:34:03.419Z,19.32
2019-01-28T12:36:30.732Z,19.26
2019-01-28T12:38:57.936Z,19.26
2019-01-28T12:41:25.881Z,19.25
2019-01-28T12:43:53.467Z,19.21
2019-01-28T12:46:20.726Z,19.19
2019-01-28T12:48:48.415Z,19.19
2019-01-28T12:51:16.460Z,19.18
2019-01-28T12:53:43.718Z,19.18
2019-01-28T12:56:11.270Z,19.18
2019-01-28T12:58:38.658Z,19.16
2019-01-28T13:01:06.796Z,19.14
2019-01-28T13:03:35.051Z,19.10
2019-01-28T13:06:04.309Z,19.15
2019-01-28T13:08:32.586Z,19.16
2019-01-28T13:11:03.267Z,19.16
2019-01-28T13:13:34.532Z,19.19
2019-01-28T13:16:01.794Z,19.18
2019-01-28T13:18:32.322Z,19.15
2019-01-28T13:20:59.630Z,19.18
2019-01-28T13:23:30.066Z,19.19
2019-01-28T13:25:57.305Z,19.16
2019-01-28T13:28:25.834Z,19.21
2019-01-28T13:30:53.336Z,19.27
2019-01-28T13:33:22.500Z,19.28
2019-01-28T13:35:49.780Z,19.30
2019-01-28T13:38:17.004Z,19.31
2019-01-28T13:40:44.215Z,19.33
2019-01-28T13:43:11.402Z,19.38
2019-01-28T13:45:39.504Z,19.45
2019-01-28T13:48:09.340Z,19.45
2019-01-28T13:50:36.586Z,19.41
2019-01-28T13:53:03.754Z,19.42
2019-01-28T13:55:30.951Z,19.45
2019-01-28T13:57:58.079Z,19.42
2019-01-28T14:00:26.727Z,19.37
2019-01-28T14:02:53.951Z,19.32
2019-01-28T14:05:21.177Z,19.32
2019-01-28T14:07:48.442Z,19.32
2019-01-28T14:10:15.716Z,19.28
2019-01-28T14:12:42.929Z,19.20
2019-01-28T14:15:13.921Z,19.17
2019-01-28T14:17:41.255Z,19.15
2019-01-28T14:20:11.305Z,19.13
2019-01-28T14:22:38.495Z,19.16
2019-01-28T14:25:06.078Z,19.16
2019-01-28T14:27:33.261Z,19.16
2019-01-28T14:30:00.451Z,19.17
2019-01-28T14:32:27.666Z,19.16
2019-01-28T14:34:54.831Z,19.14
2019-01-28T14:37:22.143Z,19.12
2019-01-28T14:39:49.356Z,19.11
2019-01-28T14:42:16.545Z,19.11
2019-01-28T14:44:43.840Z,19.08
2019-01-28T14:47:11.027Z,19.08
2019-01-28T14:49:38.267Z,19.07
2019-01-28T14:52:05.465Z,19.08
2019-01-28T14:54:32.621Z,19.07
2019-01-28T14:56:59.801Z,19.00
2019-01-28T14:59:27.003Z,18.93
2019-01-28T15:01:54.356Z,18.94
2019-01-28T15:04:21.528Z,18.92
2019-01-28T15:06:48.768Z,18.87
2019-01-28T15:09:16.190Z,18.88
2019-01-28T15:11:43.383Z,18.87
2019-01-28T15:14:10.581Z,18.85
2019-01-28T15:16:37.769Z,18.86
2019-01-28T15:19:04.993Z,18.84
2019-01-28T15:21:32.227Z,18.87
2019-01-28T15:23:59.595Z,18.86
2019-01-28T15:26:26.788Z,18.85
2019-01-28T15:28:54.015Z,18.84
2019-01-28T15:31:21.225Z,18.83
2019-01-28T15:33:48.598Z,18.82
2019-01-28T15:36:15.926Z,18.82
2019-01-28T15:38:43.164Z,18.80
2019-01-28T15:41:10.401Z,18.77
2019-01-28T15:43:37.585Z,18.78
2019-01-28T15:46:04.810Z,18.76
2019-01-28T15:48:32.046Z,18.73
2019-01-28T15:50:59.243Z,18.72
2019-01-28T15:53:26.432Z,18.70
2019-01-28T15:55:53.621Z,18.68
2019-01-28T15:58:21.064Z,18.64
2019-01-28T16:00:48.272Z,18.68
2019-01-28T16:03:15.538Z,18.64
2019-01-28T16:05:42.690Z,18.59
2019-01-28T16:08:09.862Z,18.57
2019-01-28T16:10:37.072Z,18.54
2019-01-28T16:13:04.373Z,18.51
2019-01-28T16:15:39.957Z,18.51
2019-01-28T16:18:09.059Z,18.52
2019-01-28T16:20:36.379Z,18.47
2019-01-28T16:23:04.078Z,18.44
2019-01-28T16:25:31.298Z,18.43
2019-01-28T16:27:58.631Z,18.42
2019-01-28T16:30:26.826Z,18.43
2019-01-28T16:32:54.054Z,18.42
2019-01-28T16:35:21.278Z,18.41
2019-01-28T16:37:48.532Z,18.42
2019-01-28T16:40:17.061Z,18.40
2019-01-28T16:42:44.287Z,18.40
2019-01-28T16:45:12.762Z,18.39
2019-01-28T16:47:39.972Z,18.40
2019-01-28T16:50:08.335Z,18.39
2019-01-28T16:52:35.540Z,18.35
2019-01-28T16:55:02.904Z,18.36
2019-01-28T16:57:30.087Z,18.39
2019-01-28T16:59:57.233Z,18.34
2019-01-28T17:02:24.491Z,18.30
2019-01-28T17:04:51.665Z,18.30
2019-01-28T17:07:18.881Z,18.26
2019-01-28T17:09:46.110Z,18.29
2019-01-28T17:12:14.357Z,18.29
2019-01-28T17:14:41.708Z,18.30
2019-01-28T17:17:08.908Z,18.31
2019-01-28T17:19:38.255Z,18.38
2019-01-28T17:22:08.075Z,18.38
2019-01-28T17:24:42.117Z,18.36
2019-01-28T17:27:09.636Z,18.38
2019-01-28T17:29:36.946Z,18.39
2019-01-28T17:32:04.206Z,18.35
2019-01-28T17:34:31.402Z,18.34
2019-01-28T17:36:58.701Z,18.38
2019-01-28T17:39:25.923Z,18.40
2019-01-28T17:41:53.175Z,18.41
2019-01-28T17:44:20.370Z,18.43
2019-01-28T17:46:47.531Z,18.38
2019-01-28T17:49:14.746Z,18.30
2019-01-28T17:51:41.937Z,18.25
2019-01-28T17:54:09.253Z,18.21
2019-01-28T17:56:36.434Z,18.20
2019-01-28T17:59:03.648Z,18.20
2019-01-28T18:01:30.833Z,18.19
2019-01-28T18:03:58.027Z,18.15
2019-01-28T18:06:25.285Z,18.15
2019-01-28T18:08:52.470Z,18.15
2019-01-28T18:11:19.664Z,18.17
2019-01-28T18:13:46.910Z,18.24
2019-01-28T18:16:14.148Z,18.24
2019-01-28T18:18:41.314Z,18.23
2019-01-28T18:21:08.672Z,18.22
2019-01-28T18:23:45.949Z,18.24
2019-01-28T18:26:13.242Z,18.21
2019-01-28T18:28:40.462Z,18.21
2019-01-28T18:31:07.794Z,18.22
2019-01-28T18:33:35.011Z,18.18
2019-01-28T18:36:05.734Z,18.20
2019-01-28T18:38:31.356Z,18.14
2019-01-28T18:40:58.531Z,18.16
2019-01-28T18:43:25.754Z,18.16
2019-01-28T18:45:52.943Z,18.12
2019-01-28T18:48:20.205Z,18.13
2019-01-28T18:50:47.389Z,18.12
2019-01-28T18:53:14.570Z,18.14
2019-01-28T18:55:41.824Z,18.11
2019-01-28T18:58:09.158Z,18.08
2019-01-28T19:00:36.354Z,18.11
2019-01-28T19:03:03.616Z,18.12
2019-01-28T19:05:50.396Z,18.13
2019-01-28T19:08:36.071Z,18.11
2019-01-28T19:11:29.466Z,18.15
2019-01-28T19:14:20.254Z,18.15
2019-01-28T19:17:23.541Z,18.16
2019-01-28T19:20:09.357Z,18.16
2019-01-28T19:22:36.648Z,18.18
2019-01-28T19:25:04.995Z,18.22
2019-01-28T19:27:33.214Z,18.22
2019-01-28T19:30:00.766Z,18.19
2019-01-28T19:32:28.051Z,18.28
2019-01-28T19:34:55.316Z,18.23
2019-01-28T19:37:22.528Z,18.23
2019-01-28T19:39:49.745Z,18.24
2019-01-28T19:42:16.997Z,18.29
2019-01-28T19:44:49.981Z,18.33
2019-01-28T19:47:20.862Z,18.36
2019-01-28T19:49:53.890Z,18.45
2019-01-28T19:52:21.098Z,18.48
2019-01-28T19:54:49.866Z,18.51
2019-01-28T19:57:17.072Z,18.47
2019-01-28T19:59:44.294Z,18.51
2019-01-28T20:02:11.577Z,18.49
2019-01-28T20:04:39.199Z,18.49
2019-01-28T20:07:07.040Z,18.50
2019-01-28T20:09:37.476Z,18.54
2019-01-28T20:12:04.704Z,18.50
2019-01-28T20:14:33.442Z,18.59
2019-01-28T20:17:00.810Z,18.56
2019-01-28T20:19:27.994Z,18.45
2019-01-28T20:21:55.294Z,18.46
2019-01-28T20:24:22.504Z,18.42
2019-01-28T20:26:49.786Z,18.40
2019-01-28T20:29:17.002Z,18.33
2019-01-28T20:31:44.198Z,18.26
2019-01-28T20:34:11.424Z,18.24
2019-01-28T20:36:38.659Z,18.20
2019-01-28T20:39:08.188Z,18.17
2019-01-28T20:41:35.398Z,18.16
2019-01-28T20:44:02.724Z,18.13
2019-01-28T20:46:29.969Z,18.07
2019-01-28T20:48:57.220Z,18.07
2019-01-28T20:51:31.891Z,18.08
2019-01-28T20:53:53.513Z,18.06
2019-01-28T20:56:20.760Z,18.07
2019-01-28T20:58:47.975Z,18.12
2019-01-28T21:01:15.210Z,18.10
2019-01-28T21:03:42.408Z,18.10
2019-01-28T21:06:09.816Z,18.08
2019-01-28T21:08:37.072Z,18.08
2019-01-28T21:11:04.352Z,18.09
2019-01-28T21:13:31.676Z,18.04
2019-01-28T21:15:59.153Z,18.01
2019-01-28T21:18:26.464Z,17.99
2019-01-28T21:20:53.731Z,17.97
2019-01-28T21:23:20.935Z,17.99
2019-01-28T21:26:00.204Z,17.99
2019-01-28T21:28:31.629Z,18.02
2019-01-28T21:31:00.488Z,18.03
2019-01-28T21:33:28.723Z,18.01
2019-01-28T21:36:18.015Z,18.02
2019-01-28T21:38:49.638Z,18.01
2019-01-28T21:41:22.126Z,18.01
2019-01-28T21:43:51.628Z,18.04
2019-01-28T21:46:19.451Z,18.03
2019-01-28T21:48:47.375Z,17.97
2019-01-28T21:51:14.798Z,17.97
2019-01-28T21:53:42.379Z,17.97
2019-01-28T21:56:10.172Z,17.97
2019-01-28T21:58:39.308Z,17.98
2019-01-28T22:01:07.279Z,17.98
2019-01-28T22:03:34.559Z,17.94
2019-01-28T22:06:01.813Z,17.94
2019-01-28T22:08:29.041Z,17.95
2019-01-28T22:10:58.350Z,17.98
2019-01-28T22:13:25.685Z,17.99
2019-01-28T22:15:53.231Z,18.00
2019-01-28T22:18:20.435Z,18.03
2019-01-28T22:20:48.027Z,18.04
2019-01-28T22:23:15.459Z,17.97
2019-01-28T22:25:42.842Z,18.00
2019-01-28T22:28:10.060Z,17.95
2019-01-28T22:30:37.898Z,17.95
2019-01-28T22:33:08.911Z,17.92
2019-01-28T22:35:36.530Z,17.89
2019-01-28T22:38:05.000Z,17.93
2019-01-28T22:40:32.536Z,17.93
2019-01-28T22:43:00.173Z,18.00
2019-01-28T22:45:27.744Z,18.00
2019-01-28T22:47:55.120Z,18.01
2019-01-28T22:50:24.076Z,17.96
2019-01-28T22:52:53.362Z,17.97
2019-01-28T22:55:22.733Z,17.98
2019-01-28T22:57:52.200Z,18.00
2019-01-28T23:00:47.464Z,18.00
2019-01-28T23:06:06.862Z,17.99
2019-01-28T23:08:36.272Z,18.01
2019-01-28T23:11:04.015Z,17.99
2019-01-28T23:13:33.218Z,17.98
2019-01-28T23:16:01.535Z,17.95
2019-01-28T23:18:29.889Z,17.99
2019-01-28T23:20:59.169Z,17.93
2019-01-28T23:23:26.654Z,17.91
2019-01-28T23:25:53.843Z,17.94
2019-01-28T23:28:21.068Z,17.99
2019-01-28T23:30:48.290Z,17.98
2019-01-28T23:33:15.474Z,17.95
2019-01-28T23:35:42.698Z,17.94
2019-01-28T23:38:09.918Z,18.03
2019-01-28T23:40:37.322Z,18.02
2019-01-28T23:43:07.373Z,18.05
2019-01-28T23:45:34.922Z,18.05
2019-01-28T23:48:02.203Z,18.04
2019-01-28T23:50:29.409Z,18.04
2019-01-28T23:52:56.816Z,18.04
2019-01-28T23:55:26.363Z,18.02
2019-01-28T23:57:56.944Z,17.99
